Time;durP1;ratioP1;P1;durP2;ratioP2;P2;SDS_P1;SDS_P2;PMS_P1;PMS_P2;Temp;Humidity;BMP_temperature;BMP_pressure;BME280_temperature;BME280_humidity;BME280_pressure;Samples;Min_cycle;Max_cycle;Signal;HPM_P1;HPM_P2
2023/08/28 00:00:10;;;;;;;5.55;1.08;;;;;;;;;;6185918;23;20062;-41
2023/08/28 00:02:38;;;;;;;5.90;1.00;;;;;;;;;;6180896;23;20017;-42
2023/08/28 00:05:07;;;;;;;5.05;1.00;;;;;;;;;;6180370;23;20021;-41
2023/08/28 00:07:34;;;;;;;4.00;1.23;;;;;;;;;;6189094;23;20413;-41
2023/08/28 00:10:03;;;;;;;4.53;1.30;;;;;;;;;;6175612;23;20024;-41
2023/08/28 00:12:36;;;;;;;6.07;1.33;;;;;;;;;;6181438;23;20017;-41
2023/08/28 00:15:05;;;;;;;7.97;1.42;;;;;;;;;;6178275;23;20013;-41
2023/08/28 00:17:36;;;;;;;4.65;1.30;;;;;;;;;;6184234;23;20047;-43
2023/08/28 00:20:04;;;;;;;4.23;0.83;;;;;;;;;;6180382;23;20507;-41
2023/08/28 00:22:33;;;;;;;6.30;1.20;;;;;;;;;;6189382;23;20088;-42
2023/08/28 00:25:01;;;;;;;4.07;0.98;;;;;;;;;;6178792;23;20406;-41
2023/08/28 00:27:30;;;;;;;4.70;1.50;;;;;;;;;;6188444;23;20028;-43
2023/08/28 00:29:58;;;;;;;5.85;0.90;;;;;;;;;;6182704;23;20012;-42
2023/08/28 00:32:26;;;;;;;6.50;1.30;;;;;;;;;;6187514;23;20023;-41
2023/08/28 00:34:55;;;;;;;4.63;1.48;;;;;;;;;;6177057;23;20024;-42
2023/08/28 00:37:25;;;;;;;6.20;1.20;;;;;;;;;;6188062;23;20020;-41
2023/08/28 00:39:53;;;;;;;5.18;1.35;;;;;;;;;;6176535;23;20043;-42
2023/08/28 00:42:22;;;;;;;5.80;2.10;;;;;;;;;;6188438;23;20751;-45
2023/08/28 00:44:52;;;;;;;6.03;1.77;;;;;;;;;;6186107;23;20372;-42
2023/08/28 00:47:20;;;;;;;6.28;1.73;;;;;;;;;;6180911;23;20027;-41
2023/08/28 00:49:47;;;;;;;5.68;1.70;;;;;;;;;;6185428;23;20021;-41
2023/08/28 00:52:21;;;;;;;6.50;1.70;;;;;;;;;;6177893;23;20020;-43
2023/08/28 00:54:49;;;;;;;4.47;1.50;;;;;;;;;;6184145;23;20017;-41
2023/08/28 00:57:18;;;;;;;6.07;1.63;;;;;;;;;;6176592;23;20027;-41
2023/08/28 00:59:45;;;;;;;4.93;1.52;;;;;;;;;;6187465;23;20012;-41
2023/08/28 01:02:13;;;;;;;5.03;1.38;;;;;;;;;;6175809;23;20329;-41
2023/08/28 01:04:41;;;;;;;5.95;1.45;;;;;;;;;;6187908;23;20340;-41
2023/08/28 01:07:10;;;;;;;5.63;1.45;;;;;;;;;;6190317;23;20428;-41
2023/08/28 01:09:47;;;;;;;5.30;1.80;;;;;;;;;;6173797;23;20629;-42
2023/08/28 01:12:22;;;;;;;4.32;1.58;;;;;;;;;;6183835;23;20023;-44
2023/08/28 01:14:56;;;;;;;5.93;1.77;;;;;;;;;;6185697;23;20474;-41
2023/08/28 01:17:26;;;;;;;5.72;1.63;;;;;;;;;;6191967;23;20042;-41
2023/08/28 01:19:56;;;;;;;5.72;1.55;;;;;;;;;;6175912;23;20032;-42
2023/08/28 01:22:26;;;;;;;4.70;1.50;;;;;;;;;;6187107;23;20034;-42
2023/08/28 01:24:55;;;;;;;4.97;1.60;;;;;;;;;;6179607;23;20016;-42
2023/08/28 01:27:26;;;;;;;5.85;1.58;;;;;;;;;;6189698;23;20075;-42
2023/08/28 01:30:10;;;;;;;4.57;1.27;;;;;;;;;;6179900;23;20145;-43
2023/08/28 01:32:41;;;;;;;4.80;1.23;;;;;;;;;;6185392;23;20016;-41
2023/08/28 01:35:13;;;;;;;5.37;1.60;;;;;;;;;;6190707;23;20510;-41
2023/08/28 01:37:50;;;;;;;4.28;1.30;;;;;;;;;;6177683;23;20230;-42
2023/08/28 01:40:18;;;;;;;4.47;1.63;;;;;;;;;;6189860;23;20013;-42
2023/08/28 01:42:50;;;;;;;6.38;1.42;;;;;;;;;;6183032;23;20031;-41
2023/08/28 01:45:18;;;;;;;4.70;1.50;;;;;;;;;;6187446;23;20043;-41
2023/08/28 01:47:47;;;;;;;6.53;1.73;;;;;;;;;;6180326;23;20016;-43
2023/08/28 01:50:16;;;;;;;7.28;2.03;;;;;;;;;;6191227;23;20447;-44
2023/08/28 01:52:43;;;;;;;4.82;1.35;;;;;;;;;;6185036;23;20012;-41
2023/08/28 01:55:12;;;;;;;4.80;1.58;;;;;;;;;;6197285;23;20478;-42
2023/08/28 01:57:41;;;;;;;5.75;1.70;;;;;;;;;;6163687;23;20020;-42
2023/08/28 02:00:11;;;;;;;4.60;1.30;;;;;;;;;;6196325;23;20020;-43
2023/08/28 02:02:39;;;;;;;4.60;1.70;;;;;;;;;;6191964;23;20019;-43
2023/08/28 02:05:07;;;;;;;4.38;1.30;;;;;;;;;;6186064;23;20099;-43
2023/08/28 02:07:35;;;;;;;6.18;1.65;;;;;;;;;;6163343;23;20013;-42
2023/08/28 02:10:03;;;;;;;5.40;1.48;;;;;;;;;;6197617;23;20090;-42
2023/08/28 02:12:33;;;;;;;4.63;1.43;;;;;;;;;;6187824;23;20017;-43
2023/08/28 02:15:02;;;;;;;5.30;1.55;;;;;;;;;;6189562;23;20333;-42
2023/08/28 02:17:33;;;;;;;6.82;2.05;;;;;;;;;;6190831;23;20020;-43
2023/08/28 02:20:00;;;;;;;5.47;1.73;;;;;;;;;;6190801;23;20048;-44
2023/08/28 02:22:29;;;;;;;5.05;1.60;;;;;;;;;;6188867;23;20021;-42
2023/08/28 02:24:58;;;;;;;5.67;1.70;;;;;;;;;;6195932;23;20079;-42
2023/08/28 02:27:26;;;;;;;4.93;1.50;;;;;;;;;;6182111;23;20310;-41
2023/08/28 02:29:53;;;;;;;6.60;1.80;;;;;;;;;;6189677;23;20024;-41
2023/08/28 02:32:22;;;;;;;6.28;1.20;;;;;;;;;;6189005;23;20487;-42
2023/08/28 02:34:51;;;;;;;5.60;1.58;;;;;;;;;;6166334;23;20378;-41
2023/08/28 02:37:19;;;;;;;5.50;1.37;;;;;;;;;;6192306;23;20013;-41
2023/08/28 02:39:48;;;;;;;5.57;1.40;;;;;;;;;;6192302;23;20415;-41
2023/08/28 02:42:15;;;;;;;6.00;1.80;;;;;;;;;;6192664;23;20017;-42
2023/08/28 02:44:44;;;;;;;5.75;1.70;;;;;;;;;;6186830;23;20770;-41
2023/08/28 02:47:13;;;;;;;5.80;1.83;;;;;;;;;;6194559;23;20013;-42
2023/08/28 02:49:41;;;;;;;5.67;1.70;;;;;;;;;;6182011;23;20019;-43
2023/08/28 02:52:11;;;;;;;7.40;1.90;;;;;;;;;;6192151;23;20016;-43
2023/08/28 02:54:40;;;;;;;5.38;1.65;;;;;;;;;;6183225;23;20395;-41
2023/08/28 02:57:07;;;;;;;6.72;2.00;;;;;;;;;;6194011;23;20027;-42
2023/08/28 02:59:35;;;;;;;5.57;2.00;;;;;;;;;;6177087;23;20036;-41
2023/08/28 03:02:04;;;;;;;7.37;2.40;;;;;;;;;;6187403;23;20012;-43
2023/08/28 03:04:34;;;;;;;7.40;2.40;;;;;;;;;;6186461;23;20025;-43
2023/08/28 03:07:01;;;;;;;6.22;2.10;;;;;;;;;;6185335;23;20479;-41
2023/08/28 03:09:32;;;;;;;6.68;2.35;;;;;;;;;;6192925;23;20336;-41
2023/08/28 03:12:00;;;;;;;6.85;2.35;;;;;;;;;;6187279;23;20025;-41
2023/08/28 03:14:27;;;;;;;7.20;2.20;;;;;;;;;;6196254;23;20016;-43
2023/08/28 03:16:56;;;;;;;6.43;2.20;;;;;;;;;;6170754;23;20103;-41
2023/08/28 03:19:24;;;;;;;6.93;2.15;;;;;;;;;;6196424;23;20029;-41
2023/08/28 03:21:51;;;;;;;6.70;2.00;;;;;;;;;;6189189;23;20036;-41
2023/08/28 03:24:19;;;;;;;5.97;2.03;;;;;;;;;;6177072;23;20070;-41
2023/08/28 03:26:49;;;;;;;5.90;2.43;;;;;;;;;;6187254;23;20036;-42
2023/08/28 03:29:16;;;;;;;7.95;2.58;;;;;;;;;;6193604;23;20013;-43
2023/08/28 03:31:45;;;;;;;6.53;2.45;;;;;;;;;;6183670;23;20032;-42
2023/08/28 03:34:13;;;;;;;6.25;2.65;;;;;;;;;;6192438;23;20444;-45
2023/08/28 03:36:41;;;;;;;6.32;2.33;;;;;;;;;;6179254;23;20043;-41
2023/08/28 03:39:10;;;;;;;7.40;2.17;;;;;;;;;;6196012;23;20016;-42
2023/08/28 03:41:37;;;;;;;5.78;1.83;;;;;;;;;;6193078;23;20448;-41
2023/08/28 03:44:09;;;;;;;6.28;2.25;;;;;;;;;;6192419;23;20016;-42
2023/08/28 03:46:38;;;;;;;6.53;2.15;;;;;;;;;;6191931;23;20317;-43
2023/08/28 03:49:05;;;;;;;5.90;2.20;;;;;;;;;;6185851;23;20091;-41
2023/08/28 03:51:33;;;;;;;5.37;2.30;;;;;;;;;;6199364;23;20020;-43
2023/08/28 03:54:02;;;;;;;8.25;2.20;;;;;;;;;;6160499;23;20020;-44
2023/08/28 03:56:30;;;;;;;6.25;2.10;;;;;;;;;;6191358;23;20040;-42
2023/08/28 03:58:58;;;;;;;6.75;2.03;;;;;;;;;;6193236;23;20352;-43
2023/08/28 04:01:28;;;;;;;9.63;2.40;;;;;;;;;;6183165;23;20195;-42
2023/08/28 04:03:56;;;;;;;6.20;2.20;;;;;;;;;;6187700;23;20016;-41
2023/08/28 04:06:24;;;;;;;5.80;2.20;;;;;;;;;;6189081;23;20020;-42
2023/08/28 04:08:52;;;;;;;5.50;1.88;;;;;;;;;;6185479;23;20016;-42
2023/08/28 04:11:20;;;;;;;5.97;2.45;;;;;;;;;;6187826;23;20363;-42
2023/08/28 04:13:47;;;;;;;7.65;2.38;;;;;;;;;;6187916;23;20012;-41
2023/08/28 04:16:18;;;;;;;7.67;2.20;;;;;;;;;;6186407;23;20016;-43
2023/08/28 04:18:47;;;;;;;6.13;1.88;;;;;;;;;;6188690;23;20533;-43
2023/08/28 04:21:15;;;;;;;5.72;1.92;;;;;;;;;;6183064;23;20332;-42
2023/08/28 04:23:44;;;;;;;5.55;2.20;;;;;;;;;;6188523;23;20074;-42
2023/08/28 04:26:11;;;;;;;5.25;1.60;;;;;;;;;;6180536;23;20012;-41
2023/08/28 04:28:39;;;;;;;5.00;1.90;;;;;;;;;;6187778;23;20612;-44
2023/08/28 04:31:09;;;;;;;5.53;1.70;;;;;;;;;;6195684;23;20082;-42
2023/08/28 04:33:37;;;;;;;5.63;1.45;;;;;;;;;;6184543;23;20013;-41
2023/08/28 04:36:06;;;;;;;5.47;1.95;;;;;;;;;;6191175;23;20017;-43
2023/08/28 04:38:35;;;;;;;5.30;1.52;;;;;;;;;;6184673;23;20020;-41
2023/08/28 04:41:03;;;;;;;4.90;1.40;;;;;;;;;;6178573;23;20029;-42
2023/08/28 04:43:31;;;;;;;5.90;1.52;;;;;;;;;;6194128;23;20017;-41
2023/08/28 04:45:59;;;;;;;4.72;1.20;;;;;;;;;;6186113;23;20020;-41
2023/08/28 04:48:28;;;;;;;4.45;1.35;;;;;;;;;;6185088;23;20028;-44
2023/08/28 04:50:56;;;;;;;5.22;1.30;;;;;;;;;;6175482;23;20480;-44
2023/08/28 04:53:26;;;;;;;5.03;1.40;;;;;;;;;;6184308;23;20021;-42
2023/08/28 04:55:55;;;;;;;4.03;1.27;;;;;;;;;;6180256;23;20074;-41
2023/08/28 04:58:22;;;;;;;6.20;1.48;;;;;;;;;;6185075;23;20027;-41
2023/08/28 05:00:54;;;;;;;5.70;1.58;;;;;;;;;;6179729;23;20025;-42
2023/08/28 05:03:22;;;;;;;5.03;1.30;;;;;;;;;;6184824;23;20070;-42
2023/08/28 05:05:49;;;;;;;5.43;1.30;;;;;;;;;;6187410;23;20343;-43
2023/08/28 05:08:18;;;;;;;4.10;1.20;;;;;;;;;;6190662;23;20486;-42
2023/08/28 05:10:47;;;;;;;5.05;1.30;;;;;;;;;;6179248;23;20024;-42
2023/08/28 05:13:15;;;;;;;5.13;1.42;;;;;;;;;;6187094;23;20029;-42
2023/08/28 05:15:47;;;;;;;5.13;1.42;;;;;;;;;;6180175;23;20183;-43
2023/08/28 05:18:15;;;;;;;4.47;1.40;;;;;;;;;;6186843;23;20020;-42
2023/08/28 05:20:47;;;;;;;5.20;1.60;;;;;;;;;;6192517;23;20555;-43
2023/08/28 05:23:15;;;;;;;5.65;1.30;;;;;;;;;;6179557;23;20070;-41
2023/08/28 05:25:42;;;;;;;4.05;1.20;;;;;;;;;;6195136;23;20020;-41
2023/08/28 05:28:11;;;;;;;4.05;1.27;;;;;;;;;;6179249;23;20016;-41
2023/08/28 05:30:40;;;;;;;4.50;1.27;;;;;;;;;;6186850;23;20028;-43
2023/08/28 05:33:08;;;;;;;4.78;1.00;;;;;;;;;;6170909;23;20025;-42
2023/08/28 05:35:35;;;;;;;4.97;1.45;;;;;;;;;;6189354;23;20419;-41
2023/08/28 05:38:04;;;;;;;10.20;1.42;;;;;;;;;;6181460;23;20020;-42
2023/08/28 05:40:33;;;;;;;4.18;1.15;;;;;;;;;;6188022;23;20012;-41
2023/08/28 05:43:00;;;;;;;4.17;1.30;;;;;;;;;;6179099;23;20023;-43
2023/08/28 05:45:30;;;;;;;5.03;1.70;;;;;;;;;;6171975;23;20021;-43
2023/08/28 05:47:58;;;;;;;4.25;1.20;;;;;;;;;;6186314;23;20023;-45
2023/08/28 05:50:27;;;;;;;4.55;1.27;;;;;;;;;;6191739;23;20449;-41
2023/08/28 05:52:55;;;;;;;4.07;1.30;;;;;;;;;;6183522;23;20023;-44
2023/08/28 05:55:24;;;;;;;4.20;1.00;;;;;;;;;;6189398;23;20530;-42
2023/08/28 05:57:52;;;;;;;4.70;0.95;;;;;;;;;;6184658;23;20024;-41
2023/08/28 06:00:21;;;;;;;4.13;0.73;;;;;;;;;;6180130;23;20023;-43
2023/08/28 06:02:50;;;;;;;3.90;1.05;;;;;;;;;;6189384;23;20024;-41
2023/08/28 06:05:18;;;;;;;4.22;0.90;;;;;;;;;;6186448;23;20020;-42
2023/08/28 06:07:46;;;;;;;4.37;1.00;;;;;;;;;;6178455;23;20016;-42
2023/08/28 06:10:18;;;;;;;3.75;0.75;;;;;;;;;;6186073;23;20020;-42
2023/08/28 06:12:45;;;;;;;5.20;1.30;;;;;;;;;;6188326;23;20339;-41
2023/08/28 06:15:14;;;;;;;4.03;1.10;;;;;;;;;;6185135;23;20016;-43
2023/08/28 06:17:43;;;;;;;3.90;1.00;;;;;;;;;;6185861;23;20068;-41
2023/08/28 06:20:13;;;;;;;4.23;0.90;;;;;;;;;;6182981;23;20021;-41
2023/08/28 06:22:41;;;;;;;4.63;1.08;;;;;;;;;;6186299;23;20460;-42
2023/08/28 06:25:09;;;;;;;5.32;1.20;;;;;;;;;;6175109;23;20443;-44
2023/08/28 06:27:38;;;;;;;3.88;1.02;;;;;;;;;;6189185;23;20017;-41
2023/08/28 06:30:10;;;;;;;3.88;0.80;;;;;;;;;;6175636;23;20062;-42
2023/08/28 06:32:38;;;;;;;5.13;1.20;;;;;;;;;;6173502;23;20039;-43
2023/08/28 06:35:07;;;;;;;4.50;1.10;;;;;;;;;;6188415;23;20095;-41
2023/08/28 06:37:36;;;;;;;4.50;1.08;;;;;;;;;;6179083;23;20024;-42
2023/08/28 06:40:04;;;;;;;5.20;1.38;;;;;;;;;;6191156;23;20029;-45
2023/08/28 06:42:34;;;;;;;4.13;0.88;;;;;;;;;;6178072;23;20028;-43
2023/08/28 06:45:03;;;;;;;3.97;1.03;;;;;;;;;;6189528;23;20035;-45
2023/08/28 06:47:32;;;;;;;5.68;0.82;;;;;;;;;;6176802;23;20028;-41
2023/08/28 06:50:00;;;;;;;4.32;1.20;;;;;;;;;;6188415;23;20044;-42
2023/08/28 06:52:28;;;;;;;3.70;0.80;;;;;;;;;;6178135;23;20017;-42
2023/08/28 06:54:58;;;;;;;5.85;0.80;;;;;;;;;;6188842;23;20020;-41
2023/08/28 06:57:26;;;;;;;6.47;1.00;;;;;;;;;;6181276;23;20020;-42
2023/08/28 06:59:54;;;;;;;3.92;1.15;;;;;;;;;;6181279;23;20024;-43
2023/08/28 07:02:22;;;;;;;3.80;0.80;;;;;;;;;;6189104;23;20021;-42
2023/08/28 07:04:50;;;;;;;5.95;0.95;;;;;;;;;;6180148;23;20062;-42
2023/08/28 07:07:18;;;;;;;7.07;1.45;;;;;;;;;;6171507;23;20016;-41
2023/08/28 07:09:46;;;;;;;4.80;1.60;;;;;;;;;;6190962;23;20495;-44
2023/08/28 07:12:15;;;;;;;4.50;1.45;;;;;;;;;;6178457;23;20635;-41
2023/08/28 07:14:43;;;;;;;4.60;1.38;;;;;;;;;;6189025;23;20120;-41
2023/08/28 07:17:11;;;;;;;5.95;1.85;;;;;;;;;;6181248;23;20020;-42
2023/08/28 07:19:39;;;;;;;4.60;1.35;;;;;;;;;;6183969;23;20021;-41
2023/08/28 07:22:08;;;;;;;4.67;1.30;;;;;;;;;;6185922;23;20020;-42
2023/08/28 07:24:36;;;;;;;5.00;1.50;;;;;;;;;;6180668;23;20017;-43
2023/08/28 07:27:04;;;;;;;4.35;1.10;;;;;;;;;;6184990;23;20020;-41
2023/08/28 07:29:33;;;;;;;4.50;1.33;;;;;;;;;;6174803;23;20076;-42
2023/08/28 07:32:02;;;;;;;5.22;1.42;;;;;;;;;;6190166;23;20027;-43
2023/08/28 07:34:32;;;;;;;3.80;1.10;;;;;;;;;;6177995;23;20361;-42
2023/08/28 07:36:59;;;;;;;4.25;1.00;;;;;;;;;;6191724;23;20048;-41
2023/08/28 07:39:27;;;;;;;3.90;1.10;;;;;;;;;;6172928;23;20063;-43
2023/08/28 07:41:57;;;;;;;5.43;1.65;;;;;;;;;;6186286;23;20027;-42
2023/08/28 07:44:25;;;;;;;4.60;1.40;;;;;;;;;;6179783;23;20328;-41
2023/08/28 07:47:13;;;;;;;4.33;1.40;;;;;;;;;;6189341;23;20522;-41
2023/08/28 07:50:00;;;;;;;3.55;0.75;;;;;;;;;;6165766;23;20016;-42
2023/08/28 07:52:30;;;;;;;3.40;0.80;;;;;;;;;;6178197;23;20025;-41
2023/08/28 07:54:58;;;;;;;2.70;0.50;;;;;;;;;;6188806;23;20096;-41
2023/08/28 07:57:26;;;;;;;3.13;0.77;;;;;;;;;;6182770;23;20021;-42
2023/08/28 07:59:56;;;;;;;2.83;0.70;;;;;;;;;;6171905;23;20024;-41
2023/08/28 08:02:29;;;;;;;3.13;0.70;;;;;;;;;;6188788;23;20016;-43
2023/08/28 08:04:59;;;;;;;3.50;0.80;;;;;;;;;;6188341;23;20025;-42
2023/08/28 08:07:26;;;;;;;4.18;1.00;;;;;;;;;;6175518;23;20301;-44
2023/08/28 08:09:54;;;;;;;2.80;0.70;;;;;;;;;;6187399;23;20017;-42
2023/08/28 08:12:22;;;;;;;3.00;0.70;;;;;;;;;;6177866;23;20020;-42
2023/08/28 08:14:49;;;;;;;3.20;0.70;;;;;;;;;;6190391;23;20788;-42
2023/08/28 08:17:17;;;;;;;3.05;0.80;;;;;;;;;;6186991;23;20017;-41
2023/08/28 08:19:47;;;;;;;3.20;0.68;;;;;;;;;;6184646;23;20255;-44
2023/08/28 08:22:15;;;;;;;2.83;0.70;;;;;;;;;;6183812;23;20020;-42
2023/08/28 08:24:43;;;;;;;3.23;0.60;;;;;;;;;;6180703;23;20016;-41
2023/08/28 08:27:16;;;;;;;3.58;0.80;;;;;;;;;;6190503;23;20023;-41
2023/08/28 08:29:44;;;;;;;3.58;0.70;;;;;;;;;;6157569;23;20312;-44
2023/08/28 08:32:12;;;;;;;3.20;0.60;;;;;;;;;;6187360;23;20024;-42
2023/08/28 08:34:40;;;;;;;2.78;0.60;;;;;;;;;;6173270;23;20379;-44
2023/08/28 08:37:09;;;;;;;2.90;0.67;;;;;;;;;;6189858;23;20024;-44
2023/08/28 08:39:37;;;;;;;3.80;0.70;;;;;;;;;;6180226;23;20371;-45
2023/08/28 08:42:06;;;;;;;3.47;0.60;;;;;;;;;;6193133;23;20032;-42
2023/08/28 08:44:34;;;;;;;2.80;0.60;;;;;;;;;;6175070;23;20021;-42
2023/08/28 08:47:03;;;;;;;3.17;0.90;;;;;;;;;;6191315;23;20024;-42
2023/08/28 08:49:32;;;;;;;3.33;0.90;;;;;;;;;;6175497;23;20024;-41
2023/08/28 08:52:01;;;;;;;3.88;1.33;;;;;;;;;;6182374;23;20022;-46
2023/08/28 08:54:36;;;;;;;2.50;0.50;;;;;;;;;;6179987;23;20020;-44
2023/08/28 08:57:06;;;;;;;2.58;0.60;;;;;;;;;;6181906;23;20034;-42
2023/08/28 08:59:36;;;;;;;4.03;0.50;;;;;;;;;;6183858;23;20024;-42
2023/08/28 09:02:04;;;;;;;3.10;0.60;;;;;;;;;;6174862;23;20030;-43
2023/08/28 09:04:33;;;;;;;3.13;0.77;;;;;;;;;;6185377;23;20021;-42
2023/08/28 09:07:02;;;;;;;2.92;0.70;;;;;;;;;;6184195;23;20381;-43
2023/08/28 09:09:32;;;;;;;2.53;0.57;;;;;;;;;;6182477;23;20107;-42
2023/08/28 09:12:01;;;;;;;3.42;0.73;;;;;;;;;;6177539;23;20429;-41
2023/08/28 09:14:31;;;;;;;2.83;0.70;;;;;;;;;;6186180;23;20016;-42
2023/08/28 09:16:59;;;;;;;3.40;0.60;;;;;;;;;;6173032;23;20021;-44
2023/08/28 09:19:27;;;;;;;2.80;0.50;;;;;;;;;;6173757;23;20460;-43
2023/08/28 09:21:55;;;;;;;5.30;1.02;;;;;;;;;;6177012;23;20025;-42
2023/08/28 09:24:24;;;;;;;3.70;0.80;;;;;;;;;;6178897;23;20024;-43
2023/08/28 09:26:54;;;;;;;3.57;0.90;;;;;;;;;;6180476;23;20359;-43
2023/08/28 09:29:24;;;;;;;4.82;1.13;;;;;;;;;;6183663;23;20024;-43
2023/08/28 09:31:52;;;;;;;12.02;2.20;;;;;;;;;;6182771;23;20447;-43
2023/08/28 09:34:21;;;;;;;6.85;1.90;;;;;;;;;;6181801;23;20013;-42
2023/08/28 09:36:49;;;;;;;8.30;2.00;;;;;;;;;;6181940;23;20092;-42
2023/08/28 09:39:16;;;;;;;8.67;2.13;;;;;;;;;;6176856;23;20020;-43
2023/08/28 09:41:47;;;;;;;9.10;2.35;;;;;;;;;;6186044;23;20017;-42
2023/08/28 09:44:20;;;;;;;10.52;2.35;;;;;;;;;;6186299;23;20036;-42
2023/08/28 09:46:49;;;;;;;10.15;3.25;;;;;;;;;;6187454;23;20012;-42
2023/08/28 09:49:18;;;;;;;9.65;2.42;;;;;;;;;;6185035;23;20021;-42
2023/08/28 09:51:47;;;;;;;15.83;2.83;;;;;;;;;;6192444;23;20044;-44
2023/08/28 09:54:17;;;;;;;9.30;2.25;;;;;;;;;;6188470;23;20523;-42
2023/08/28 09:56:46;;;;;;;10.18;2.70;;;;;;;;;;6186014;23;20012;-42
2023/08/28 09:59:14;;;;;;;13.65;2.33;;;;;;;;;;6186348;23;20035;-43
2023/08/28 10:01:43;;;;;;;9.48;2.15;;;;;;;;;;6186844;23;20031;-42
2023/08/28 10:04:12;;;;;;;9.00;1.80;;;;;;;;;;6182873;23;20020;-42
2023/08/28 10:06:41;;;;;;;7.78;2.25;;;;;;;;;;6184666;23;20701;-43
2023/08/28 10:09:17;;;;;;;9.02;1.75;;;;;;;;;;6177445;23;20020;-43
2023/08/28 10:11:46;;;;;;;9.90;2.05;;;;;;;;;;6186333;23;20474;-42
2023/08/28 10:14:16;;;;;;;8.93;2.10;;;;;;;;;;6187050;23;20579;-43
2023/08/28 10:16:47;;;;;;;9.60;1.77;;;;;;;;;;6183600;23;20021;-43
2023/08/28 10:19:20;;;;;;;8.82;1.90;;;;;;;;;;6178994;23;20017;-43
2023/08/28 10:21:48;;;;;;;7.07;1.85;;;;;;;;;;6185662;23;20024;-42
2023/08/28 10:24:19;;;;;;;9.23;1.80;;;;;;;;;;6175983;23;20020;-43
2023/08/28 10:26:48;;;;;;;9.80;2.13;;;;;;;;;;6182341;23;20016;-42
2023/08/28 10:29:18;;;;;;;8.03;2.00;;;;;;;;;;6190046;23;20059;-45
2023/08/28 10:31:51;;;;;;;7.68;1.92;;;;;;;;;;6181640;23;20856;-42
2023/08/28 10:34:20;;;;;;;6.22;1.50;;;;;;;;;;6171983;23;20019;-42
2023/08/28 10:36:50;;;;;;;14.75;1.92;;;;;;;;;;6182958;23;20486;-44
2023/08/28 10:39:21;;;;;;;9.00;2.10;;;;;;;;;;6180888;23;20023;-42
2023/08/28 10:41:49;;;;;;;9.20;2.00;;;;;;;;;;6183063;23;20027;-42
2023/08/28 10:44:17;;;;;;;8.02;1.83;;;;;;;;;;6182223;23;20495;-42
2023/08/28 10:46:47;;;;;;;13.68;3.20;;;;;;;;;;6184859;23;20016;-43
2023/08/28 10:49:16;;;;;;;11.20;2.15;;;;;;;;;;6181085;23;20012;-43
2023/08/28 10:51:45;;;;;;;9.00;1.73;;;;;;;;;;6187153;23;20021;-43
2023/08/28 10:54:13;;;;;;;10.30;1.80;;;;;;;;;;6182870;23;20039;-42
2023/08/28 10:56:40;;;;;;;12.20;1.90;;;;;;;;;;6182575;23;20016;-43
2023/08/28 10:59:23;;;;;;;8.98;1.90;;;;;;;;;;6180219;23;20023;-42
2023/08/28 11:01:54;;;;;;;8.13;1.45;;;;;;;;;;6186541;23;20012;-42
2023/08/28 11:04:24;;;;;;;9.70;1.80;;;;;;;;;;6176792;23;20024;-45
2023/08/28 11:06:52;;;;;;;7.77;1.33;;;;;;;;;;6189215;23;20016;-44
2023/08/28 11:09:37;;;;;;;7.32;1.45;;;;;;;;;;6180628;23;20044;-45
2023/08/28 11:12:25;;;;;;;8.23;1.60;;;;;;;;;;6188796;23;20022;-44
2023/08/28 11:14:59;;;;;;;6.60;1.45;;;;;;;;;;6171395;23;20080;-43
2023/08/28 11:17:27;;;;;;;7.78;1.52;;;;;;;;;;6189887;23;20066;-42
2023/08/28 11:20:07;;;;;;;4.90;1.57;;;;;;;;;;6176642;23;20639;-42
2023/08/28 11:22:36;;;;;;;5.57;1.35;;;;;;;;;;6184293;23;20020;-45
2023/08/28 11:25:05;;;;;;;6.15;1.70;;;;;;;;;;6168834;23;20017;-42
2023/08/28 11:27:34;;;;;;;8.57;1.75;;;;;;;;;;6185432;23;20344;-42
2023/08/28 11:30:05;;;;;;;7.10;1.40;;;;;;;;;;6177382;23;20027;-43
2023/08/28 11:32:35;;;;;;;7.53;1.63;;;;;;;;;;6178649;23;20058;-44
2023/08/28 11:35:08;;;;;;;5.57;1.10;;;;;;;;;;6182943;23;20055;-43
2023/08/28 11:37:38;;;;;;;5.18;1.13;;;;;;;;;;6176216;23;20023;-43
2023/08/28 11:40:09;;;;;;;5.07;1.42;;;;;;;;;;6178675;23;20052;-43
2023/08/28 11:42:38;;;;;;;8.90;1.60;;;;;;;;;;6172516;23;20027;-43
2023/08/28 11:45:07;;;;;;;5.73;1.73;;;;;;;;;;6185300;23;20019;-43
2023/08/28 11:47:36;;;;;;;5.53;1.30;;;;;;;;;;6176383;23;20016;-42
2023/08/28 11:50:05;;;;;;;5.38;1.30;;;;;;;;;;6182218;23;20027;-43
2023/08/28 11:52:35;;;;;;;9.25;1.55;;;;;;;;;;6178912;23;20744;-43
2023/08/28 11:55:06;;;;;;;4.78;1.08;;;;;;;;;;6178168;23;20024;-45
2023/08/28 11:57:34;;;;;;;5.83;1.60;;;;;;;;;;6176540;23;20460;-42
2023/08/28 12:00:05;;;;;;;6.40;1.70;;;;;;;;;;6170771;23;20031;-43
2023/08/28 12:02:33;;;;;;;5.80;1.10;;;;;;;;;;6176297;23;20108;-43
2023/08/28 12:05:02;;;;;;;6.00;1.58;;;;;;;;;;6192159;23;20012;-44
2023/08/28 12:07:30;;;;;;;6.55;1.60;;;;;;;;;;6175198;23;20436;-43
2023/08/28 12:10:00;;;;;;;6.77;1.57;;;;;;;;;;6188548;23;20021;-43
2023/08/28 12:12:29;;;;;;;5.85;1.52;;;;;;;;;;6175458;23;20017;-44
2023/08/28 12:14:58;;;;;;;7.50;1.13;;;;;;;;;;6184130;23;20625;-44
2023/08/28 12:17:27;;;;;;;5.88;1.20;;;;;;;;;;6172618;23;20329;-43
2023/08/28 12:19:55;;;;;;;4.25;0.90;;;;;;;;;;6167313;23;20017;-45
2023/08/28 12:22:25;;;;;;;6.50;1.23;;;;;;;;;;6188639;23;20017;-45
2023/08/28 12:24:53;;;;;;;5.38;1.10;;;;;;;;;;6163434;23;20012;-45
2023/08/28 12:27:26;;;;;;;6.68;1.00;;;;;;;;;;6187215;23;20588;-43
2023/08/28 12:29:55;;;;;;;5.28;1.45;;;;;;;;;;6178121;23;20017;-44
2023/08/28 12:32:24;;;;;;;4.90;1.13;;;;;;;;;;6185793;23;20020;-43
2023/08/28 12:34:53;;;;;;;5.50;1.20;;;;;;;;;;6173942;23;20079;-45
2023/08/28 12:37:21;;;;;;;6.00;1.30;;;;;;;;;;6187838;23;20509;-45
2023/08/28 12:39:50;;;;;;;7.13;1.10;;;;;;;;;;6171764;23;20310;-46
2023/08/28 12:42:18;;;;;;;4.25;0.95;;;;;;;;;;6189603;23;20027;-47
2023/08/28 12:44:48;;;;;;;4.18;0.82;;;;;;;;;;6177666;23;20039;-45
2023/08/28 12:47:17;;;;;;;5.57;1.47;;;;;;;;;;6189111;23;20039;-45
2023/08/28 12:49:47;;;;;;;8.02;1.33;;;;;;;;;;6185138;23;20536;-42
2023/08/28 12:52:14;;;;;;;4.40;1.30;;;;;;;;;;6178225;23;20020;-42
2023/08/28 12:54:46;;;;;;;4.75;1.10;;;;;;;;;;6185211;23;20039;-43
2023/08/28 12:57:14;;;;;;;7.70;1.20;;;;;;;;;;6181668;23;20084;-43
2023/08/28 12:59:42;;;;;;;4.37;1.00;;;;;;;;;;6185984;23;20550;-44
2023/08/28 13:02:12;;;;;;;5.70;1.20;;;;;;;;;;6185449;23;20457;-42
2023/08/28 13:04:42;;;;;;;5.68;1.05;;;;;;;;;;6183976;23;20222;-44
2023/08/28 13:07:13;;;;;;;3.72;0.85;;;;;;;;;;6181265;23;20016;-44
2023/08/28 13:09:41;;;;;;;4.50;1.08;;;;;;;;;;6192302;23;20028;-44
2023/08/28 13:12:09;;;;;;;4.23;1.20;;;;;;;;;;6182103;23;20432;-44
2023/08/28 13:14:38;;;;;;;4.55;1.10;;;;;;;;;;6187760;23;20021;-43
2023/08/28 13:17:05;;;;;;;4.85;1.02;;;;;;;;;;6174330;23;20760;-43
2023/08/28 13:19:34;;;;;;;5.07;1.00;;;;;;;;;;6189098;23;20156;-43
2023/08/28 13:22:09;;;;;;;5.82;1.30;;;;;;;;;;6175514;23;20021;-43
2023/08/28 13:24:40;;;;;;;4.70;1.33;;;;;;;;;;6179059;23;20024;-43
2023/08/28 13:27:12;;;;;;;5.00;1.20;;;;;;;;;;6189405;23;20023;-44
2023/08/28 13:29:40;;;;;;;5.10;0.90;;;;;;;;;;6173981;23;20017;-43
2023/08/28 13:32:07;;;;;;;4.40;1.13;;;;;;;;;;6188805;23;20021;-43
2023/08/28 13:34:38;;;;;;;6.00;1.10;;;;;;;;;;6169441;23;20463;-46
2023/08/28 13:37:05;;;;;;;5.60;1.20;;;;;;;;;;6187830;23;20016;-43
2023/08/28 13:39:33;;;;;;;6.50;1.30;;;;;;;;;;6172661;23;20456;-43
2023/08/28 13:42:02;;;;;;;4.75;1.42;;;;;;;;;;6189434;23;20024;-45
2023/08/28 13:44:30;;;;;;;7.20;1.17;;;;;;;;;;6163318;23;20419;-43
2023/08/28 13:46:58;;;;;;;4.70;1.13;;;;;;;;;;6186069;23;20400;-43
2023/08/28 13:49:27;;;;;;;5.30;1.07;;;;;;;;;;6178258;23;20063;-43
2023/08/28 13:51:56;;;;;;;5.45;1.00;;;;;;;;;;6184319;23;20086;-46
2023/08/28 13:54:24;;;;;;;5.35;1.15;;;;;;;;;;6173408;23;20027;-44
2023/08/28 13:56:53;;;;;;;5.22;0.90;;;;;;;;;;6186575;23;20063;-42
2023/08/28 13:59:21;;;;;;;4.57;1.20;;;;;;;;;;6173830;23;20016;-46
2023/08/28 14:01:49;;;;;;;7.03;1.20;;;;;;;;;;6184119;23;20036;-43
2023/08/28 14:04:18;;;;;;;6.68;0.95;;;;;;;;;;6176261;23;20031;-44
2023/08/28 14:06:45;;;;;;;5.13;0.90;;;;;;;;;;6185672;23;20063;-47
2023/08/28 14:09:14;;;;;;;5.60;0.88;;;;;;;;;;6176225;23;20383;-44
2023/08/28 14:11:43;;;;;;;3.90;1.02;;;;;;;;;;6181096;23;20048;-43
2023/08/28 14:14:13;;;;;;;4.60;0.90;;;;;;;;;;6173666;23;20016;-42
2023/08/28 14:16:40;;;;;;;5.13;1.40;;;;;;;;;;6186831;23;20019;-43
2023/08/28 14:19:10;;;;;;;5.60;1.45;;;;;;;;;;6180244;23;20858;-44
2023/08/28 14:21:38;;;;;;;5.65;1.27;;;;;;;;;;6175831;23;20020;-42
2023/08/28 14:24:08;;;;;;;6.35;1.52;;;;;;;;;;6186152;23;20115;-45
2023/08/28 14:26:38;;;;;;;7.43;1.53;;;;;;;;;;6181052;23;20103;-45
2023/08/28 14:29:06;;;;;;;7.25;1.50;;;;;;;;;;6188353;23;20013;-43
2023/08/28 14:31:34;;;;;;;5.25;1.30;;;;;;;;;;6175304;23;20016;-45
2023/08/28 14:34:02;;;;;;;4.68;1.33;;;;;;;;;;6190982;23;20095;-46
2023/08/28 14:36:31;;;;;;;5.70;1.38;;;;;;;;;;6174533;23;20027;-44
2023/08/28 14:39:05;;;;;;;6.20;1.40;;;;;;;;;;6187142;23;20023;-43
2023/08/28 14:41:39;;;;;;;5.93;1.48;;;;;;;;;;6180711;23;20451;-45
2023/08/28 14:44:12;;;;;;;5.50;1.08;;;;;;;;;;6184312;23;20017;-43
2023/08/28 14:46:40;;;;;;;22.02;4.10;;;;;;;;;;6189063;23;20021;-46
2023/08/28 14:49:08;;;;;;;8.48;2.60;;;;;;;;;;6176279;23;20021;-43
2023/08/28 14:51:35;;;;;;;6.93;1.33;;;;;;;;;;6185526;23;20436;-43
2023/08/28 14:54:05;;;;;;;5.70;1.70;;;;;;;;;;6179191;23;20017;-45